sensor_id;sensor_type;location;lat;lon;timestamp;P1;durP1;ratioP1;P2;durP2;ratioP2
40675;SDS011;26359;48.750;9.314;2023-08-07T00:01:44;13.82;;;13.00;;
40675;SDS011;26359;48.750;9.314;2023-08-07T00:04:09;19.80;;;18.55;;
40675;SDS011;26359;48.750;9.314;2023-08-07T00:06:35;18.50;;;17.23;;
40675;SDS011;26359;48.750;9.314;2023-08-07T00:09:00;17.73;;;16.58;;
40675;SDS011;26359;48.750;9.314;2023-08-07T00:11:26;13.20;;;12.40;;
40675;SDS011;26359;48.750;9.314;2023-08-07T00:13:53;11.70;;;10.70;;
40675;SDS011;26359;48.750;9.314;2023-08-07T00:16:18;10.05;;;9.15;;
40675;SDS011;26359;48.750;9.314;2023-08-07T00:18:44;11.23;;;10.23;;
40675;SDS011;26359;48.750;9.314;2023-08-07T00:21:09;11.98;;;11.15;;
40675;SDS011;26359;48.750;9.314;2023-08-07T00:23:35;12.00;;;11.20;;
40675;SDS011;26359;48.750;9.314;2023-08-07T00:26:00;26.83;;;25.33;;
40675;SDS011;26359;48.750;9.314;2023-08-07T00:28:26;28.48;;;26.77;;
40675;SDS011;26359;48.750;9.314;2023-08-07T00:30:53;31.05;;;29.25;;
40675;SDS011;26359;48.750;9.314;2023-08-07T00:33:18;30.60;;;28.80;;
40675;SDS011;26359;48.750;9.314;2023-08-07T00:35:44;27.80;;;25.90;;
40675;SDS011;26359;48.750;9.314;2023-08-07T00:38:09;26.05;;;24.40;;
40675;SDS011;26359;48.750;9.314;2023-08-07T00:40:38;20.92;;;19.70;;
40675;SDS011;26359;48.750;9.314;2023-08-07T00:43:04;17.65;;;16.30;;
40675;SDS011;26359;48.750;9.314;2023-08-07T00:45:34;24.92;;;23.25;;
40675;SDS011;26359;48.750;9.314;2023-08-07T00:48:07;7.60;;;6.90;;
40675;SDS011;26359;48.750;9.314;2023-08-07T00:50:32;5.22;;;4.53;;
40675;SDS011;26359;48.750;9.314;2023-08-07T00:52:58;6.30;;;5.78;;
40675;SDS011;26359;48.750;9.314;2023-08-07T00:55:24;7.53;;;7.00;;
40675;SDS011;26359;48.750;9.314;2023-08-07T00:57:50;13.40;;;12.38;;
40675;SDS011;26359;48.750;9.314;2023-08-07T01:00:16;10.52;;;9.70;;
40675;SDS011;26359;48.750;9.314;2023-08-07T01:02:42;9.52;;;8.63;;
40675;SDS011;26359;48.750;9.314;2023-08-07T01:05:08;13.15;;;12.25;;
40675;SDS011;26359;48.750;9.314;2023-08-07T01:07:34;7.50;;;6.80;;
40675;SDS011;26359;48.750;9.314;2023-08-07T01:09:59;8.80;;;8.15;;
40675;SDS011;26359;48.750;9.314;2023-08-07T01:12:29;9.27;;;8.57;;
40675;SDS011;26359;48.750;9.314;2023-08-07T01:15:08;8.15;;;7.32;;
40675;SDS011;26359;48.750;9.314;2023-08-07T01:17:43;9.90;;;6.32;;
40675;SDS011;26359;48.750;9.314;2023-08-07T01:20:11;4.22;;;3.85;;
40675;SDS011;26359;48.750;9.314;2023-08-07T01:22:36;5.68;;;4.90;;
40675;SDS011;26359;48.750;9.314;2023-08-07T01:25:02;4.97;;;4.55;;
40675;SDS011;26359;48.750;9.314;2023-08-07T01:27:42;6.13;;;4.75;;
40675;SDS011;26359;48.750;9.314;2023-08-07T01:30:20;5.07;;;4.55;;
40675;SDS011;26359;48.750;9.314;2023-08-07T01:33:10;4.68;;;4.38;;
40675;SDS011;26359;48.750;9.314;2023-08-07T01:36:05;8.10;;;7.30;;
40675;SDS011;26359;48.750;9.314;2023-08-07T01:38:32;11.93;;;10.07;;
40675;SDS011;26359;48.750;9.314;2023-08-07T01:40:58;12.57;;;11.68;;
40675;SDS011;26359;48.750;9.314;2023-08-07T01:43:25;9.27;;;8.63;;
40675;SDS011;26359;48.750;9.314;2023-08-07T01:45:51;12.10;;;11.15;;
40675;SDS011;26359;48.750;9.314;2023-08-07T01:48:17;10.63;;;9.60;;
40675;SDS011;26359;48.750;9.314;2023-08-07T01:50:42;11.00;;;10.10;;
40675;SDS011;26359;48.750;9.314;2023-08-07T01:53:08;10.40;;;9.57;;
40675;SDS011;26359;48.750;9.314;2023-08-07T01:55:33;13.15;;;12.30;;
40675;SDS011;26359;48.750;9.314;2023-08-07T01:57:59;17.25;;;16.17;;
40675;SDS011;26359;48.750;9.314;2023-08-07T02:00:24;14.77;;;13.85;;
40675;SDS011;26359;48.750;9.314;2023-08-07T02:02:50;16.23;;;15.02;;
40675;SDS011;26359;48.750;9.314;2023-08-07T02:05:16;20.20;;;18.90;;
40675;SDS011;26359;48.750;9.314;2023-08-07T02:07:41;17.23;;;16.05;;
40675;SDS011;26359;48.750;9.314;2023-08-07T02:10:07;13.82;;;12.88;;
40675;SDS011;26359;48.750;9.314;2023-08-07T02:12:33;8.95;;;8.27;;
40675;SDS011;26359;48.750;9.314;2023-08-07T02:14:59;6.40;;;5.85;;
40675;SDS011;26359;48.750;9.314;2023-08-07T02:17:25;8.50;;;7.78;;
40675;SDS011;26359;48.750;9.314;2023-08-07T02:19:57;16.90;;;15.65;;
40675;SDS011;26359;48.750;9.314;2023-08-07T02:22:23;16.13;;;15.02;;
40675;SDS011;26359;48.750;9.314;2023-08-07T02:24:49;14.43;;;13.63;;
40675;SDS011;26359;48.750;9.314;2023-08-07T02:27:15;16.70;;;15.77;;
40675;SDS011;26359;48.750;9.314;2023-08-07T02:29:41;12.77;;;11.48;;
40675;SDS011;26359;48.750;9.314;2023-08-07T02:32:06;12.13;;;11.18;;
40675;SDS011;26359;48.750;9.314;2023-08-07T02:34:32;9.98;;;9.27;;
40675;SDS011;26359;48.750;9.314;2023-08-07T02:36:58;14.40;;;13.35;;
40675;SDS011;26359;48.750;9.314;2023-08-07T02:39:24;20.27;;;19.05;;
40675;SDS011;26359;48.750;9.314;2023-08-07T02:41:49;20.63;;;19.38;;
40675;SDS011;26359;48.750;9.314;2023-08-07T02:44:15;13.25;;;12.43;;
40675;SDS011;26359;48.750;9.314;2023-08-07T02:46:42;13.45;;;12.38;;
40675;SDS011;26359;48.750;9.314;2023-08-07T02:49:08;11.45;;;10.40;;
40675;SDS011;26359;48.750;9.314;2023-08-07T02:51:33;22.38;;;21.00;;
40675;SDS011;26359;48.750;9.314;2023-08-07T02:53:59;15.52;;;14.35;;
40675;SDS011;26359;48.750;9.314;2023-08-07T02:56:25;13.10;;;12.23;;
40675;SDS011;26359;48.750;9.314;2023-08-07T02:58:50;10.35;;;9.55;;
40675;SDS011;26359;48.750;9.314;2023-08-07T03:01:16;14.75;;;13.57;;
40675;SDS011;26359;48.750;9.314;2023-08-07T03:03:41;33.38;;;31.13;;
40675;SDS011;26359;48.750;9.314;2023-08-07T03:06:07;28.33;;;26.67;;
40675;SDS011;26359;48.750;9.314;2023-08-07T03:08:32;12.65;;;11.73;;
40675;SDS011;26359;48.750;9.314;2023-08-07T03:10:58;13.18;;;12.23;;
40675;SDS011;26359;48.750;9.314;2023-08-07T03:13:24;7.90;;;6.80;;
40675;SDS011;26359;48.750;9.314;2023-08-07T03:15:54;9.45;;;8.75;;
40675;SDS011;26359;48.750;9.314;2023-08-07T03:18:26;14.30;;;13.20;;
40675;SDS011;26359;48.750;9.314;2023-08-07T03:20:52;10.32;;;9.43;;
40675;SDS011;26359;48.750;9.314;2023-08-07T03:23:18;11.15;;;10.23;;
40675;SDS011;26359;48.750;9.314;2023-08-07T03:25:43;11.35;;;9.85;;
40675;SDS011;26359;48.750;9.314;2023-08-07T03:28:09;13.95;;;12.82;;
40675;SDS011;26359;48.750;9.314;2023-08-07T03:30:34;10.85;;;9.85;;
40675;SDS011;26359;48.750;9.314;2023-08-07T03:33:00;14.90;;;13.88;;
40675;SDS011;26359;48.750;9.314;2023-08-07T03:35:25;11.15;;;10.23;;
40675;SDS011;26359;48.750;9.314;2023-08-07T03:37:51;14.70;;;13.35;;
40675;SDS011;26359;48.750;9.314;2023-08-07T03:40:16;10.77;;;9.75;;
40675;SDS011;26359;48.750;9.314;2023-08-07T03:42:42;9.18;;;8.45;;
40675;SDS011;26359;48.750;9.314;2023-08-07T03:45:07;10.02;;;7.88;;
40675;SDS011;26359;48.750;9.314;2023-08-07T03:47:33;20.27;;;18.83;;
40675;SDS011;26359;48.750;9.314;2023-08-07T03:49:59;17.88;;;16.88;;
40675;SDS011;26359;48.750;9.314;2023-08-07T03:52:24;28.25;;;26.65;;
40675;SDS011;26359;48.750;9.314;2023-08-07T03:54:50;17.55;;;16.30;;
40675;SDS011;26359;48.750;9.314;2023-08-07T03:57:15;8.70;;;7.97;;
40675;SDS011;26359;48.750;9.314;2023-08-07T03:59:41;8.75;;;6.90;;
40675;SDS011;26359;48.750;9.314;2023-08-07T04:02:06;8.25;;;7.50;;
40675;SDS011;26359;48.750;9.314;2023-08-07T04:04:32;13.35;;;12.32;;
40675;SDS011;26359;48.750;9.314;2023-08-07T04:06:57;18.50;;;17.40;;
40675;SDS011;26359;48.750;9.314;2023-08-07T04:09:23;31.08;;;28.85;;
40675;SDS011;26359;48.750;9.314;2023-08-07T04:11:48;14.13;;;12.93;;
40675;SDS011;26359;48.750;9.314;2023-08-07T04:14:14;12.75;;;11.77;;
40675;SDS011;26359;48.750;9.314;2023-08-07T04:16:39;10.10;;;9.20;;
40675;SDS011;26359;48.750;9.314;2023-08-07T04:19:05;8.30;;;7.50;;
40675;SDS011;26359;48.750;9.314;2023-08-07T04:21:32;8.98;;;8.20;;
40675;SDS011;26359;48.750;9.314;2023-08-07T04:23:58;14.57;;;13.20;;
40675;SDS011;26359;48.750;9.314;2023-08-07T04:26:25;15.20;;;13.77;;
40675;SDS011;26359;48.750;9.314;2023-08-07T04:28:51;23.00;;;21.50;;
40675;SDS011;26359;48.750;9.314;2023-08-07T04:31:17;14.07;;;13.13;;
40675;SDS011;26359;48.750;9.314;2023-08-07T04:33:42;18.65;;;17.33;;
40675;SDS011;26359;48.750;9.314;2023-08-07T04:36:08;15.13;;;13.88;;
40675;SDS011;26359;48.750;9.314;2023-08-07T04:38:33;15.10;;;13.88;;
40675;SDS011;26359;48.750;9.314;2023-08-07T04:40:59;30.17;;;28.38;;
40675;SDS011;26359;48.750;9.314;2023-08-07T04:43:24;16.92;;;15.57;;
40675;SDS011;26359;48.750;9.314;2023-08-07T04:45:50;22.63;;;21.15;;
40675;SDS011;26359;48.750;9.314;2023-08-07T04:48:16;23.98;;;22.33;;
40675;SDS011;26359;48.750;9.314;2023-08-07T04:50:42;22.85;;;20.95;;
40675;SDS011;26359;48.750;9.314;2023-08-07T04:53:08;27.50;;;25.58;;
40675;SDS011;26359;48.750;9.314;2023-08-07T04:55:34;18.88;;;17.67;;
40675;SDS011;26359;48.750;9.314;2023-08-07T04:58:00;15.45;;;14.25;;
40675;SDS011;26359;48.750;9.314;2023-08-07T05:00:26;12.90;;;11.88;;
40675;SDS011;26359;48.750;9.314;2023-08-07T05:02:52;19.40;;;17.90;;
40675;SDS011;26359;48.750;9.314;2023-08-07T05:05:18;11.80;;;10.73;;
40675;SDS011;26359;48.750;9.314;2023-08-07T05:07:46;14.00;;;13.00;;
40675;SDS011;26359;48.750;9.314;2023-08-07T05:10:14;16.55;;;15.35;;
40675;SDS011;26359;48.750;9.314;2023-08-07T05:12:40;24.25;;;22.67;;
40675;SDS011;26359;48.750;9.314;2023-08-07T05:15:05;13.35;;;12.32;;
40675;SDS011;26359;48.750;9.314;2023-08-07T05:17:31;12.10;;;11.18;;
40675;SDS011;26359;48.750;9.314;2023-08-07T05:19:57;12.93;;;12.02;;
40675;SDS011;26359;48.750;9.314;2023-08-07T05:22:23;15.57;;;14.40;;
40675;SDS011;26359;48.750;9.314;2023-08-07T05:24:48;12.20;;;11.32;;
40675;SDS011;26359;48.750;9.314;2023-08-07T05:27:14;11.38;;;10.60;;
40675;SDS011;26359;48.750;9.314;2023-08-07T05:29:40;15.77;;;14.40;;
40675;SDS011;26359;48.750;9.314;2023-08-07T05:32:09;12.55;;;11.60;;
40675;SDS011;26359;48.750;9.314;2023-08-07T05:34:38;12.18;;;11.27;;
40675;SDS011;26359;48.750;9.314;2023-08-07T05:37:05;9.77;;;8.82;;
40675;SDS011;26359;48.750;9.314;2023-08-07T05:39:31;12.80;;;11.88;;
40675;SDS011;26359;48.750;9.314;2023-08-07T05:41:56;11.68;;;10.75;;
40675;SDS011;26359;48.750;9.314;2023-08-07T05:44:23;14.20;;;13.15;;
40675;SDS011;26359;48.750;9.314;2023-08-07T05:46:49;16.10;;;14.90;;
40675;SDS011;26359;48.750;9.314;2023-08-07T05:49:15;14.07;;;12.95;;
40675;SDS011;26359;48.750;9.314;2023-08-07T05:51:41;19.27;;;18.00;;
40675;SDS011;26359;48.750;9.314;2023-08-07T05:54:07;14.65;;;13.73;;
40675;SDS011;26359;48.750;9.314;2023-08-07T05:56:32;36.25;;;34.20;;
40675;SDS011;26359;48.750;9.314;2023-08-07T05:58:58;12.77;;;11.95;;
40675;SDS011;26359;48.750;9.314;2023-08-07T06:01:24;11.60;;;10.85;;
40675;SDS011;26359;48.750;9.314;2023-08-07T06:03:55;9.85;;;9.15;;
40675;SDS011;26359;48.750;9.314;2023-08-07T06:06:21;7.40;;;6.47;;
40675;SDS011;26359;48.750;9.314;2023-08-07T06:08:46;13.95;;;13.05;;
40675;SDS011;26359;48.750;9.314;2023-08-07T06:11:12;19.00;;;17.65;;
40675;SDS011;26359;48.750;9.314;2023-08-07T06:13:39;18.42;;;17.23;;
40675;SDS011;26359;48.750;9.314;2023-08-07T06:16:05;16.27;;;15.18;;
40675;SDS011;26359;48.750;9.314;2023-08-07T06:18:31;21.77;;;20.20;;
40675;SDS011;26359;48.750;9.314;2023-08-07T06:20:56;26.90;;;25.33;;
40675;SDS011;26359;48.750;9.314;2023-08-07T06:23:22;13.18;;;12.27;;
40675;SDS011;26359;48.750;9.314;2023-08-07T06:25:48;13.35;;;12.23;;
40675;SDS011;26359;48.750;9.314;2023-08-07T06:28:13;12.88;;;10.00;;
40675;SDS011;26359;48.750;9.314;2023-08-07T06:30:39;8.95;;;8.13;;
40675;SDS011;26359;48.750;9.314;2023-08-07T06:33:04;17.73;;;16.52;;
40675;SDS011;26359;48.750;9.314;2023-08-07T06:35:30;15.57;;;14.57;;
40675;SDS011;26359;48.750;9.314;2023-08-07T06:37:55;18.63;;;17.02;;
40675;SDS011;26359;48.750;9.314;2023-08-07T06:40:21;12.18;;;11.38;;
40675;SDS011;26359;48.750;9.314;2023-08-07T06:42:46;10.95;;;10.15;;
40675;SDS011;26359;48.750;9.314;2023-08-07T06:45:12;14.35;;;13.10;;
40675;SDS011;26359;48.750;9.314;2023-08-07T06:47:37;12.23;;;11.13;;
40675;SDS011;26359;48.750;9.314;2023-08-07T06:50:03;13.88;;;12.75;;
40675;SDS011;26359;48.750;9.314;2023-08-07T06:52:29;13.10;;;12.05;;
40675;SDS011;26359;48.750;9.314;2023-08-07T06:54:54;14.27;;;12.80;;
40675;SDS011;26359;48.750;9.314;2023-08-07T06:57:20;11.48;;;10.73;;
40675;SDS011;26359;48.750;9.314;2023-08-07T06:59:45;14.13;;;13.02;;
40675;SDS011;26359;48.750;9.314;2023-08-07T07:02:11;22.27;;;20.42;;
40675;SDS011;26359;48.750;9.314;2023-08-07T07:04:36;20.58;;;19.25;;
40675;SDS011;26359;48.750;9.314;2023-08-07T07:07:02;14.13;;;13.15;;
40675;SDS011;26359;48.750;9.314;2023-08-07T07:09:28;14.88;;;13.63;;
40675;SDS011;26359;48.750;9.314;2023-08-07T07:11:53;17.73;;;16.58;;
40675;SDS011;26359;48.750;9.314;2023-08-07T07:14:20;14.15;;;13.23;;
40675;SDS011;26359;48.750;9.314;2023-08-07T07:16:46;11.88;;;11.02;;
40675;SDS011;26359;48.750;9.314;2023-08-07T07:19:12;9.13;;;8.52;;
40675;SDS011;26359;48.750;9.314;2023-08-07T07:21:37;13.60;;;12.48;;
40675;SDS011;26359;48.750;9.314;2023-08-07T07:24:03;5.75;;;5.13;;
40675;SDS011;26359;48.750;9.314;2023-08-07T07:26:29;8.40;;;7.68;;
40675;SDS011;26359;48.750;9.314;2023-08-07T07:28:54;21.58;;;20.00;;
40675;SDS011;26359;48.750;9.314;2023-08-07T07:31:20;46.67;;;44.17;;
40675;SDS011;26359;48.750;9.314;2023-08-07T07:33:46;40.65;;;38.30;;
40675;SDS011;26359;48.750;9.314;2023-08-07T07:36:15;51.78;;;48.97;;
40675;SDS011;26359;48.750;9.314;2023-08-07T07:38:42;41.65;;;39.28;;
40675;SDS011;26359;48.750;9.314;2023-08-07T07:41:08;42.97;;;40.63;;
40675;SDS011;26359;48.750;9.314;2023-08-07T07:43:36;42.58;;;40.17;;
40675;SDS011;26359;48.750;9.314;2023-08-07T07:46:02;65.63;;;62.20;;
40675;SDS011;26359;48.750;9.314;2023-08-07T07:48:28;51.05;;;48.03;;
40675;SDS011;26359;48.750;9.314;2023-08-07T07:51:00;45.30;;;42.90;;
40675;SDS011;26359;48.750;9.314;2023-08-07T07:53:26;15.40;;;14.35;;
40675;SDS011;26359;48.750;9.314;2023-08-07T07:55:52;10.93;;;10.02;;
40675;SDS011;26359;48.750;9.314;2023-08-07T07:58:19;40.50;;;38.38;;
40675;SDS011;26359;48.750;9.314;2023-08-07T08:00:45;26.20;;;24.58;;
40675;SDS011;26359;48.750;9.314;2023-08-07T08:03:11;51.47;;;48.72;;
40675;SDS011;26359;48.750;9.314;2023-08-07T08:05:37;11.23;;;10.23;;
40675;SDS011;26359;48.750;9.314;2023-08-07T08:08:03;19.52;;;18.42;;
40675;SDS011;26359;48.750;9.314;2023-08-07T08:10:30;19.70;;;18.40;;
40675;SDS011;26359;48.750;9.314;2023-08-07T08:12:55;20.55;;;19.35;;
40675;SDS011;26359;48.750;9.314;2023-08-07T08:15:21;25.33;;;23.98;;
40675;SDS011;26359;48.750;9.314;2023-08-07T08:17:47;6.95;;;6.45;;
40675;SDS011;26359;48.750;9.314;2023-08-07T08:20:13;13.50;;;12.68;;
40675;SDS011;26359;48.750;9.314;2023-08-07T08:22:43;8.15;;;7.55;;
40675;SDS011;26359;48.750;9.314;2023-08-07T08:25:09;52.85;;;49.90;;
40675;SDS011;26359;48.750;9.314;2023-08-07T08:27:36;43.17;;;40.92;;
40675;SDS011;26359;48.750;9.314;2023-08-07T08:30:02;48.95;;;46.25;;
40675;SDS011;26359;48.750;9.314;2023-08-07T08:32:28;14.75;;;13.85;;
40675;SDS011;26359;48.750;9.314;2023-08-07T08:34:54;14.35;;;13.18;;
40675;SDS011;26359;48.750;9.314;2023-08-07T08:37:20;10.85;;;9.85;;
40675;SDS011;26359;48.750;9.314;2023-08-07T08:39:46;13.00;;;12.30;;
40675;SDS011;26359;48.750;9.314;2023-08-07T08:42:12;15.63;;;14.63;;
40675;SDS011;26359;48.750;9.314;2023-08-07T08:44:40;8.25;;;7.57;;
40675;SDS011;26359;48.750;9.314;2023-08-07T08:47:16;13.00;;;12.25;;
40675;SDS011;26359;48.750;9.314;2023-08-07T08:49:49;22.20;;;20.70;;
40675;SDS011;26359;48.750;9.314;2023-08-07T08:52:19;15.10;;;14.13;;
40675;SDS011;26359;48.750;9.314;2023-08-07T08:54:46;15.98;;;15.07;;
40675;SDS011;26359;48.750;9.314;2023-08-07T08:57:13;25.38;;;23.98;;
40675;SDS011;26359;48.750;9.314;2023-08-07T08:59:39;18.65;;;17.67;;
40675;SDS011;26359;48.750;9.314;2023-08-07T09:02:06;26.90;;;25.30;;
40675;SDS011;26359;48.750;9.314;2023-08-07T09:04:33;20.58;;;19.42;;
40675;SDS011;26359;48.750;9.314;2023-08-07T09:06:58;5.15;;;4.85;;
40675;SDS011;26359;48.750;9.314;2023-08-07T09:09:25;4.93;;;4.68;;
40675;SDS011;26359;48.750;9.314;2023-08-07T09:11:52;11.90;;;11.27;;
40675;SDS011;26359;48.750;9.314;2023-08-07T09:14:20;12.35;;;11.65;;
40675;SDS011;26359;48.750;9.314;2023-08-07T09:16:49;18.60;;;17.50;;
40675;SDS011;26359;48.750;9.314;2023-08-07T09:19:15;9.27;;;8.77;;
40675;SDS011;26359;48.750;9.314;2023-08-07T09:21:41;7.32;;;6.88;;
40675;SDS011;26359;48.750;9.314;2023-08-07T09:24:07;7.78;;;7.28;;
40675;SDS011;26359;48.750;9.314;2023-08-07T09:26:33;8.98;;;8.50;;
40675;SDS011;26359;48.750;9.314;2023-08-07T09:28:59;11.48;;;10.70;;
40675;SDS011;26359;48.750;9.314;2023-08-07T09:31:24;12.65;;;11.80;;
40675;SDS011;26359;48.750;9.314;2023-08-07T09:33:51;14.52;;;13.70;;
40675;SDS011;26359;48.750;9.314;2023-08-07T09:36:17;11.85;;;11.07;;
40675;SDS011;26359;48.750;9.314;2023-08-07T09:38:43;17.42;;;16.48;;
40675;SDS011;26359;48.750;9.314;2023-08-07T09:41:14;13.20;;;12.38;;
40675;SDS011;26359;48.750;9.314;2023-08-07T09:43:43;16.08;;;15.13;;
40675;SDS011;26359;48.750;9.314;2023-08-07T09:46:08;17.85;;;16.75;;
40675;SDS011;26359;48.750;9.314;2023-08-07T09:48:41;12.13;;;11.40;;
40675;SDS011;26359;48.750;9.314;2023-08-07T09:51:07;11.07;;;10.38;;
40675;SDS011;26359;48.750;9.314;2023-08-07T09:53:33;5.25;;;4.85;;
40675;SDS011;26359;48.750;9.314;2023-08-07T09:55:59;5.32;;;4.82;;
40675;SDS011;26359;48.750;9.314;2023-08-07T09:58:26;7.20;;;6.60;;
40675;SDS011;26359;48.750;9.314;2023-08-07T10:00:52;6.68;;;6.07;;
40675;SDS011;26359;48.750;9.314;2023-08-07T10:03:18;5.68;;;5.20;;
40675;SDS011;26359;48.750;9.314;2023-08-07T10:05:44;5.05;;;3.92;;
40675;SDS011;26359;48.750;9.314;2023-08-07T10:08:11;3.72;;;3.42;;
40675;SDS011;26359;48.750;9.314;2023-08-07T10:10:37;5.30;;;4.85;;
40675;SDS011;26359;48.750;9.314;2023-08-07T10:13:04;9.85;;;9.25;;
40675;SDS011;26359;48.750;9.314;2023-08-07T10:15:31;7.15;;;6.65;;
40675;SDS011;26359;48.750;9.314;2023-08-07T10:17:58;12.18;;;11.48;;
40675;SDS011;26359;48.750;9.314;2023-08-07T10:20:27;5.43;;;5.03;;
40675;SDS011;26359;48.750;9.314;2023-08-07T10:22:56;5.32;;;4.90;;
40675;SDS011;26359;48.750;9.314;2023-08-07T10:25:25;4.45;;;4.15;;
40675;SDS011;26359;48.750;9.314;2023-08-07T10:27:52;5.38;;;4.97;;
40675;SDS011;26359;48.750;9.314;2023-08-07T10:30:19;6.40;;;5.97;;
40675;SDS011;26359;48.750;9.314;2023-08-07T10:32:47;6.43;;;4.93;;
40675;SDS011;26359;48.750;9.314;2023-08-07T10:35:26;5.75;;;5.25;;
40675;SDS011;26359;48.750;9.314;2023-08-07T10:37:54;6.95;;;6.30;;
40675;SDS011;26359;48.750;9.314;2023-08-07T10:40:29;6.60;;;6.18;;
40675;SDS011;26359;48.750;9.314;2023-08-07T10:43:13;10.05;;;9.50;;
40675;SDS011;26359;48.750;9.314;2023-08-07T10:45:42;15.38;;;14.57;;
40675;SDS011;26359;48.750;9.314;2023-08-07T10:48:10;23.40;;;22.10;;
40675;SDS011;26359;48.750;9.314;2023-08-07T10:53:21;9.30;;;8.50;;
40675;SDS011;26359;48.750;9.314;2023-08-07T10:55:54;8.63;;;7.93;;
40675;SDS011;26359;48.750;9.314;2023-08-07T10:58:26;6.18;;;5.70;;
40675;SDS011;26359;48.750;9.314;2023-08-07T11:03:54;4.72;;;4.32;;
40675;SDS011;26359;48.750;9.314;2023-08-07T11:06:21;11.18;;;10.27;;
40675;SDS011;26359;48.750;9.314;2023-08-07T11:08:52;15.00;;;14.10;;
40675;SDS011;26359;48.750;9.314;2023-08-07T11:11:18;15.95;;;14.95;;
40675;SDS011;26359;48.750;9.314;2023-08-07T11:13:44;12.18;;;11.32;;
40675;SDS011;26359;48.750;9.314;2023-08-07T11:16:10;10.95;;;10.20;;
40675;SDS011;26359;48.750;9.314;2023-08-07T11:18:36;6.18;;;5.68;;
40675;SDS011;26359;48.750;9.314;2023-08-07T11:21:05;10.63;;;10.02;;
40675;SDS011;26359;48.750;9.314;2023-08-07T11:23:32;9.93;;;9.25;;
40675;SDS011;26359;48.750;9.314;2023-08-07T11:25:57;7.63;;;7.13;;
40675;SDS011;26359;48.750;9.314;2023-08-07T11:28:23;12.45;;;11.75;;
40675;SDS011;26359;48.750;9.314;2023-08-07T11:30:52;10.93;;;10.13;;
40675;SDS011;26359;48.750;9.314;2023-08-07T11:33:19;6.63;;;6.13;;
40675;SDS011;26359;48.750;9.314;2023-08-07T11:35:45;13.10;;;12.30;;
40675;SDS011;26359;48.750;9.314;2023-08-07T11:38:12;16.20;;;15.20;;
40675;SDS011;26359;48.750;9.314;2023-08-07T11:40:37;13.30;;;12.32;;
40675;SDS011;26359;48.750;9.314;2023-08-07T11:43:03;13.55;;;12.80;;
40675;SDS011;26359;48.750;9.314;2023-08-07T11:45:29;12.40;;;11.70;;
40675;SDS011;26359;48.750;9.314;2023-08-07T11:47:55;11.20;;;10.50;;
40675;SDS011;26359;48.750;9.314;2023-08-07T11:50:22;13.57;;;12.70;;
40675;SDS011;26359;48.750;9.314;2023-08-07T11:52:47;8.88;;;8.07;;
40675;SDS011;26359;48.750;9.314;2023-08-07T11:55:14;8.23;;;7.40;;
40675;SDS011;26359;48.750;9.314;2023-08-07T11:57:40;10.43;;;9.82;;
40675;SDS011;26359;48.750;9.314;2023-08-07T12:00:07;8.00;;;7.50;;
40675;SDS011;26359;48.750;9.314;2023-08-07T12:02:49;38.22;;;36.17;;
40675;SDS011;26359;48.750;9.314;2023-08-07T12:05:14;6.55;;;6.15;;
40675;SDS011;26359;48.750;9.314;2023-08-07T12:07:40;19.17;;;18.02;;
40675;SDS011;26359;48.750;9.314;2023-08-07T12:10:06;36.13;;;34.08;;
40675;SDS011;26359;48.750;9.314;2023-08-07T12:12:33;39.47;;;37.33;;
40675;SDS011;26359;48.750;9.314;2023-08-07T12:15:00;12.90;;;12.02;;
40675;SDS011;26359;48.750;9.314;2023-08-07T12:17:26;9.27;;;8.65;;
40675;SDS011;26359;48.750;9.314;2023-08-07T12:19:55;27.52;;;25.92;;
40675;SDS011;26359;48.750;9.314;2023-08-07T12:22:22;34.72;;;32.78;;
40675;SDS011;26359;48.750;9.314;2023-08-07T12:24:48;14.65;;;13.70;;
40675;SDS011;26359;48.750;9.314;2023-08-07T12:27:13;16.60;;;15.63;;
40675;SDS011;26359;48.750;9.314;2023-08-07T12:29:39;22.38;;;21.17;;
40675;SDS011;26359;48.750;9.314;2023-08-07T12:32:04;41.20;;;38.92;;
40675;SDS011;26359;48.750;9.314;2023-08-07T12:34:30;39.33;;;37.13;;
40675;SDS011;26359;48.750;9.314;2023-08-07T12:36:57;25.45;;;23.80;;
40675;SDS011;26359;48.750;9.314;2023-08-07T12:39:22;19.90;;;18.65;;
40675;SDS011;26359;48.750;9.314;2023-08-07T12:41:48;8.25;;;7.70;;
40675;SDS011;26359;48.750;9.314;2023-08-07T12:44:14;6.50;;;6.00;;
40675;SDS011;26359;48.750;9.314;2023-08-07T12:46:40;7.15;;;6.50;;
40675;SDS011;26359;48.750;9.314;2023-08-07T12:49:08;20.50;;;19.38;;
40675;SDS011;26359;48.750;9.314;2023-08-07T12:51:34;17.40;;;16.38;;
40675;SDS011;26359;48.750;9.314;2023-08-07T12:54:00;18.40;;;17.30;;
40675;SDS011;26359;48.750;9.314;2023-08-07T12:56:25;20.95;;;19.55;;
40675;SDS011;26359;48.750;9.314;2023-08-07T12:58:51;14.77;;;13.90;;
40675;SDS011;26359;48.750;9.314;2023-08-07T13:01:16;14.55;;;13.65;;
40675;SDS011;26359;48.750;9.314;2023-08-07T13:03:42;11.30;;;10.52;;
40675;SDS011;26359;48.750;9.314;2023-08-07T13:06:07;18.55;;;17.50;;
40675;SDS011;26359;48.750;9.314;2023-08-07T13:08:34;22.05;;;20.85;;
40675;SDS011;26359;48.750;9.314;2023-08-07T13:11:00;20.17;;;18.83;;
40675;SDS011;26359;48.750;9.314;2023-08-07T13:13:26;11.38;;;10.70;;
40675;SDS011;26359;48.750;9.314;2023-08-07T13:15:53;18.65;;;17.58;;
40675;SDS011;26359;48.750;9.314;2023-08-07T13:18:18;15.90;;;14.90;;
40675;SDS011;26359;48.750;9.314;2023-08-07T13:20:44;8.68;;;8.07;;
40675;SDS011;26359;48.750;9.314;2023-08-07T13:23:10;14.98;;;14.07;;
40675;SDS011;26359;48.750;9.314;2023-08-07T13:25:36;13.98;;;13.00;;
40675;SDS011;26359;48.750;9.314;2023-08-07T13:28:02;14.73;;;13.73;;
40675;SDS011;26359;48.750;9.314;2023-08-07T13:30:31;12.73;;;11.88;;
40675;SDS011;26359;48.750;9.314;2023-08-07T13:32:57;12.55;;;11.77;;
40675;SDS011;26359;48.750;9.314;2023-08-07T13:35:23;12.55;;;11.70;;
40675;SDS011;26359;48.750;9.314;2023-08-07T13:37:48;11.48;;;10.57;;
40675;SDS011;26359;48.750;9.314;2023-08-07T13:40:14;12.70;;;12.00;;
40675;SDS011;26359;48.750;9.314;2023-08-07T13:42:39;9.18;;;8.57;;
40675;SDS011;26359;48.750;9.314;2023-08-07T13:45:05;9.90;;;9.20;;
40675;SDS011;26359;48.750;9.314;2023-08-07T13:47:32;13.88;;;12.98;;
40675;SDS011;26359;48.750;9.314;2023-08-07T13:49:58;18.85;;;17.52;;
40675;SDS011;26359;48.750;9.314;2023-08-07T13:52:23;15.18;;;14.27;;
40675;SDS011;26359;48.750;9.314;2023-08-07T13:54:50;19.00;;;17.67;;
40675;SDS011;26359;48.750;9.314;2023-08-07T13:57:15;18.98;;;17.58;;
40675;SDS011;26359;48.750;9.314;2023-08-07T13:59:41;19.38;;;18.23;;
40675;SDS011;26359;48.750;9.314;2023-08-07T14:02:07;18.58;;;17.35;;
40675;SDS011;26359;48.750;9.314;2023-08-07T14:04:32;58.63;;;42.03;;
40675;SDS011;26359;48.750;9.314;2023-08-07T14:06:59;51.75;;;34.50;;
40675;SDS011;26359;48.750;9.314;2023-08-07T14:09:24;12.68;;;11.88;;
40675;SDS011;26359;48.750;9.314;2023-08-07T14:11:50;9.50;;;8.90;;
40675;SDS011;26359;48.750;9.314;2023-08-07T14:14:16;6.90;;;6.10;;
40675;SDS011;26359;48.750;9.314;2023-08-07T14:16:41;6.90;;;6.40;;
40675;SDS011;26359;48.750;9.314;2023-08-07T14:19:07;6.35;;;5.75;;
40675;SDS011;26359;48.750;9.314;2023-08-07T14:21:33;9.60;;;8.68;;
40675;SDS011;26359;48.750;9.314;2023-08-07T14:23:58;9.10;;;8.45;;
40675;SDS011;26359;48.750;9.314;2023-08-07T14:26:25;7.13;;;6.53;;
40675;SDS011;26359;48.750;9.314;2023-08-07T14:28:50;6.25;;;5.75;;
40675;SDS011;26359;48.750;9.314;2023-08-07T14:31:16;7.38;;;6.90;;